createdAt,value
2023-05-10T00:00:47.465Z,87874.00
2023-05-10T00:01:47.470Z,87876.00
2023-05-10T00:02:47.562Z,87876.00
2023-05-10T00:03:47.546Z,87874.00
2023-05-10T00:04:47.524Z,87872.00
2023-05-10T00:05:47.538Z,87874.00
2023-05-10T00:06:47.530Z,87872.00
2023-05-10T00:07:47.542Z,87872.00
2023-05-10T00:08:47.546Z,87870.00
2023-05-10T00:09:47.537Z,87870.00
2023-05-10T00:10:47.554Z,87868.00
2023-05-10T00:11:47.571Z,87870.00
2023-05-10T00:12:47.620Z,87872.00
2023-05-10T00:13:47.581Z,87872.00
2023-05-10T00:14:47.611Z,87868.00
2023-05-10T00:15:47.616Z,87868.00
2023-05-10T00:16:47.670Z,87866.00
2023-05-10T00:17:47.664Z,87866.00
2023-05-10T00:18:47.641Z,87866.00
2023-05-10T00:19:47.644Z,87864.00
2023-05-10T00:20:47.692Z,87862.00
2023-05-10T00:21:47.716Z,87864.00
2023-05-10T00:22:47.774Z,87862.00
2023-05-10T00:23:47.768Z,87864.00
2023-05-10T00:24:47.796Z,87864.00
2023-05-10T00:25:47.839Z,87864.00
2023-05-10T00:26:47.873Z,87866.00
2023-05-10T00:27:47.928Z,87864.00
2023-05-10T00:28:47.947Z,87864.00
2023-05-10T00:29:47.984Z,87862.00
2023-05-10T00:30:48.028Z,87860.00
2023-05-10T00:31:48.115Z,87860.00
2023-05-10T00:32:48.127Z,87862.00
2023-05-10T00:33:48.147Z,87860.00
2023-05-10T00:34:48.161Z,87858.00
2023-05-10T00:35:48.202Z,87856.00
2023-05-10T00:36:48.233Z,87856.00
2023-05-10T00:37:48.269Z,87854.00
2023-05-10T00:38:48.366Z,87858.00
2023-05-10T00:39:48.313Z,87854.00
2023-05-10T00:40:48.361Z,87858.00
2023-05-10T00:41:48.389Z,87856.00
2023-05-10T00:42:48.413Z,87856.00
2023-05-10T00:43:48.448Z,87854.00
2023-05-10T00:44:48.482Z,87856.00
2023-05-10T00:45:48.544Z,87856.00
2023-05-10T00:46:48.561Z,87854.00
2023-05-10T00:47:48.616Z,87852.00
2023-05-10T00:48:48.589Z,87852.00
2023-05-10T00:49:48.573Z,87850.00
2023-05-10T00:50:48.584Z,87850.00
2023-05-10T00:51:48.597Z,87850.00
2023-05-10T00:52:48.605Z,87850.00
2023-05-10T00:53:48.647Z,87849.00
2023-05-10T00:54:48.665Z,87849.00
2023-05-10T00:55:48.692Z,87850.00
2023-05-10T00:56:48.644Z,87850.00
2023-05-10T00:57:48.650Z,87850.00
2023-05-10T00:58:48.674Z,87849.00
2023-05-10T00:59:48.676Z,87849.00
2023-05-10T01:00:48.694Z,87849.00
2023-05-10T01:01:48.788Z,87850.00
2023-05-10T01:02:48.821Z,87849.00
2023-05-10T01:03:48.731Z,87849.00
2023-05-10T01:04:48.776Z,87845.00
2023-05-10T01:05:48.759Z,87845.00
2023-05-10T01:06:48.775Z,87843.00
2023-05-10T01:07:48.791Z,87843.00
2023-05-10T01:08:48.832Z,87843.00
2023-05-10T01:09:48.853Z,87845.00
2023-05-10T01:10:48.913Z,87843.00
2023-05-10T01:11:48.929Z,87845.00
2023-05-10T01:12:48.986Z,87843.00
2023-05-10T01:13:49.013Z,87843.00
2023-05-10T01:14:49.050Z,87843.00
2023-05-10T01:15:49.106Z,87845.00
2023-05-10T01:16:49.136Z,87845.00
2023-05-10T01:17:49.231Z,87843.00
2023-05-10T01:18:49.200Z,87839.00
2023-05-10T01:19:49.230Z,87839.00
2023-05-10T01:20:49.268Z,87843.00
2023-05-10T01:21:49.319Z,87839.00
2023-05-10T01:22:49.381Z,87841.00
2023-05-10T01:23:49.393Z,87843.00
2023-05-10T01:24:49.427Z,87841.00
2023-05-10T01:25:49.463Z,87839.00
2023-05-10T01:26:49.512Z,87837.00
2023-05-10T01:27:49.528Z,87839.00
2023-05-10T01:28:49.599Z,87839.00
2023-05-10T01:29:55.726Z,87835.00
2023-05-10T01:30:50.621Z,87835.00
2023-05-10T01:31:49.729Z,87835.00
2023-05-10T01:32:49.685Z,87835.00
2023-05-10T01:33:49.655Z,87833.00
2023-05-10T01:34:49.667Z,87835.00
2023-05-10T01:35:49.738Z,87833.00
2023-05-10T01:36:49.701Z,87835.00
2023-05-10T01:37:49.698Z,87833.00
2023-05-10T01:38:49.711Z,87835.00
2023-05-10T01:39:49.709Z,87835.00
2023-05-10T01:40:49.732Z,87831.00
2023-05-10T01:41:49.738Z,87831.00
2023-05-10T01:42:49.769Z,87833.00
2023-05-10T01:43:49.749Z,87831.00
2023-05-10T01:44:49.783Z,87835.00
2023-05-10T01:45:49.776Z,87835.00
2023-05-10T01:46:49.794Z,87833.00
2023-05-10T01:47:49.820Z,87833.00
2023-05-10T01:48:49.795Z,87833.00
2023-05-10T01:49:49.791Z,87833.00
2023-05-10T01:50:49.794Z,87835.00
2023-05-10T01:51:49.827Z,87833.00
2023-05-10T01:52:49.821Z,87835.00
2023-05-10T01:53:49.832Z,87835.00
2023-05-10T01:54:49.843Z,87835.00
2023-05-10T01:55:49.855Z,87835.00
2023-05-10T01:56:49.867Z,87835.00
2023-05-10T01:57:49.849Z,87829.00
2023-05-10T01:58:49.873Z,87833.00
2023-05-10T01:59:49.896Z,87833.00
2023-05-10T02:00:49.995Z,87835.00
2023-05-10T02:01:49.971Z,87835.00
2023-05-10T02:02:50.078Z,87837.00
2023-05-10T02:03:50.139Z,87835.00
2023-05-10T02:04:50.097Z,87835.00
2023-05-10T02:05:50.140Z,87841.00
2023-05-10T02:06:50.162Z,87837.00
2023-05-10T02:07:50.239Z,87837.00
2023-05-10T02:08:50.264Z,87839.00
2023-05-10T02:09:50.298Z,87839.00
2023-05-10T02:10:50.331Z,87841.00
2023-05-10T02:11:50.393Z,87841.00
2023-05-10T02:12:50.531Z,87843.00
2023-05-10T02:13:50.476Z,87843.00
2023-05-10T02:14:50.512Z,87843.00
2023-05-10T02:15:50.596Z,87839.00
2023-05-10T02:16:50.666Z,87845.00
2023-05-10T02:17:50.796Z,87843.00
2023-05-10T02:18:50.720Z,87845.00
2023-05-10T02:19:50.761Z,87847.00
2023-05-10T02:20:50.779Z,87843.00
2023-05-10T02:21:50.824Z,87847.00
2023-05-10T02:22:50.872Z,87841.00
2023-05-10T02:23:50.940Z,87841.00
2023-05-10T02:24:50.927Z,87841.00
2023-05-10T02:25:50.928Z,87843.00
2023-05-10T02:26:50.932Z,87843.00
2023-05-10T02:27:50.947Z,87843.00
2023-05-10T02:28:50.949Z,87843.00
2023-05-10T02:29:50.982Z,87843.00
2023-05-10T02:30:50.965Z,87845.00
2023-05-10T02:31:51.017Z,87847.00
2023-05-10T02:32:51.036Z,87845.00
2023-05-10T02:33:51.024Z,87847.00
2023-05-10T02:34:51.057Z,87845.00
2023-05-10T02:35:51.014Z,87847.00
2023-05-10T02:36:51.045Z,87845.00
2023-05-10T02:37:51.048Z,87847.00
2023-05-10T02:38:51.061Z,87847.00
2023-05-10T02:39:51.075Z,87849.00
2023-05-10T02:40:51.080Z,87845.00
2023-05-10T02:41:51.079Z,87847.00
2023-05-10T02:42:51.097Z,87847.00
2023-05-10T02:43:51.112Z,87849.00
2023-05-10T02:44:51.105Z,87847.00
2023-05-10T02:45:51.169Z,87847.00
2023-05-10T02:46:51.116Z,87847.00
2023-05-10T02:47:51.132Z,87847.00
2023-05-10T02:48:51.125Z,87847.00
2023-05-10T02:49:51.164Z,87847.00
2023-05-10T02:50:51.150Z,87847.00
2023-05-10T02:51:51.154Z,87849.00
2023-05-10T02:52:51.157Z,87847.00
2023-05-10T02:53:51.182Z,87849.00
2023-05-10T02:54:51.183Z,87849.00
2023-05-10T02:55:51.198Z,87849.00
2023-05-10T02:56:51.197Z,87850.00
2023-05-10T02:57:51.204Z,87850.00
2023-05-10T02:58:51.236Z,87850.00
2023-05-10T02:59:51.224Z,87852.00
2023-05-10T03:00:51.275Z,87852.00
2023-05-10T03:01:51.364Z,87852.00
2023-05-10T03:02:51.387Z,87852.00
2023-05-10T03:03:51.376Z,87850.00
2023-05-10T03:04:51.480Z,87850.00
2023-05-10T03:05:51.417Z,87852.00
2023-05-10T03:06:51.611Z,87852.00
2023-05-10T03:07:51.418Z,87850.00
2023-05-10T03:08:51.398Z,87850.00
2023-05-10T03:09:51.395Z,87852.00
2023-05-10T03:10:51.408Z,87852.00
2023-05-10T03:11:51.404Z,87854.00
2023-05-10T03:12:51.454Z,87856.00
2023-05-10T03:13:51.436Z,87856.00
2023-05-10T03:14:51.449Z,87858.00
2023-05-10T03:15:51.456Z,87858.00
2023-05-10T03:16:51.436Z,87858.00
2023-05-10T03:17:51.496Z,87856.00
2023-05-10T03:18:51.517Z,87860.00
2023-05-10T03:19:51.589Z,87858.00
2023-05-10T03:20:51.611Z,87860.00
2023-05-10T03:21:51.654Z,87860.00
2023-05-10T03:22:51.681Z,87862.00
2023-05-10T03:23:51.737Z,87860.00
2023-05-10T03:24:51.783Z,87860.00
2023-05-10T03:25:51.788Z,87862.00
2023-05-10T03:26:51.779Z,87862.00
2023-05-10T03:27:51.788Z,87864.00
2023-05-10T03:28:51.798Z,87864.00
2023-05-10T03:29:51.801Z,87864.00
2023-05-10T03:30:51.802Z,87864.00
2023-05-10T03:33:10.910Z,87866.00
2023-05-10T03:34:10.888Z,87870.00
2023-05-10T03:35:10.890Z,87870.00
2023-05-10T03:36:10.910Z,87868.00
2023-05-10T03:37:10.897Z,87872.00
2023-05-10T03:38:10.889Z,87870.00
2023-05-10T03:39:10.883Z,87872.00
2023-05-10T03:40:10.872Z,87872.00
2023-05-10T03:41:10.873Z,87874.00
2023-05-10T03:42:10.912Z,87876.00
2023-05-10T03:43:10.899Z,87874.00
2023-05-10T03:44:10.887Z,87876.00
2023-05-10T03:45:10.915Z,87878.00
2023-05-10T03:46:10.983Z,87878.00
2023-05-10T03:47:10.908Z,87878.00
2023-05-10T03:48:10.986Z,87880.00
2023-05-10T03:49:10.907Z,87882.00
2023-05-10T03:50:10.918Z,87882.00
2023-05-10T03:51:10.915Z,87886.00
2023-05-10T03:52:10.905Z,87886.00
2023-05-10T03:53:10.897Z,87888.00
2023-05-10T03:54:10.953Z,87890.00
2023-05-10T03:55:10.884Z,87892.00
2023-05-10T03:56:10.910Z,87892.00
2023-05-10T03:57:10.880Z,87894.00
2023-05-10T03:58:10.869Z,87894.00
2023-05-10T03:59:10.878Z,87894.00
2023-05-10T04:00:10.870Z,87894.00
2023-05-10T04:01:10.859Z,87892.00
2023-05-10T04:02:10.917Z,87894.00
2023-05-10T04:03:10.894Z,87896.00
2023-05-10T04:04:10.922Z,87894.00
2023-05-10T04:05:10.830Z,87894.00
2023-05-10T04:06:10.843Z,87894.00
2023-05-10T04:07:10.829Z,87896.00
2023-05-10T04:08:10.824Z,87894.00
2023-05-10T04:09:10.827Z,87899.00
2023-05-10T04:10:10.813Z,87897.00
2023-05-10T04:11:10.806Z,87897.00
2023-05-10T04:12:11.105Z,87897.00
2023-05-10T04:13:10.816Z,87896.00
2023-05-10T04:14:10.806Z,87899.00
2023-05-10T04:15:10.842Z,87899.00
2023-05-10T04:16:10.886Z,87899.00
2023-05-10T04:17:10.960Z,87901.00
2023-05-10T04:18:11.094Z,87901.00
2023-05-10T04:19:11.070Z,87901.00
2023-05-10T04:20:11.117Z,87901.00
2023-05-10T04:21:11.189Z,87903.00
2023-05-10T04:22:11.226Z,87901.00
2023-05-10T04:23:11.326Z,87905.00
2023-05-10T04:24:11.983Z,87903.00
2023-05-10T04:25:11.365Z,87901.00
2023-05-10T04:26:11.407Z,87899.00
2023-05-10T04:27:11.472Z,87901.00
2023-05-10T04:28:11.503Z,87903.00
2023-05-10T04:29:11.508Z,87899.00
2023-05-10T04:30:11.517Z,87899.00
2023-05-10T04:31:11.556Z,87897.00
2023-05-10T04:32:11.491Z,87896.00
2023-05-10T04:33:11.495Z,87896.00
2023-05-10T04:34:11.496Z,87894.00
2023-05-10T04:35:11.494Z,87896.00
2023-05-10T04:36:11.486Z,87897.00
2023-05-10T04:37:11.484Z,87897.00
2023-05-10T04:38:11.479Z,87897.00
2023-05-10T04:39:11.486Z,87901.00
2023-05-10T04:40:11.484Z,87899.00
2023-05-10T04:41:11.511Z,87901.00
2023-05-10T04:42:11.464Z,87901.00
2023-05-10T04:43:11.466Z,87901.00
2023-05-10T04:44:11.473Z,87901.00
2023-05-10T04:45:11.444Z,87901.00
2023-05-10T04:46:11.490Z,87903.00
2023-05-10T04:47:12.785Z,87903.00
2023-05-10T04:48:11.435Z,87903.00
2023-05-10T04:49:11.465Z,87903.00
2023-05-10T04:50:11.415Z,87903.00
2023-05-10T04:51:11.412Z,87903.00
2023-05-10T04:52:11.410Z,87905.00
2023-05-10T04:53:11.410Z,87903.00
2023-05-10T04:54:11.497Z,87903.00
2023-05-10T04:55:11.431Z,87903.00
2023-05-10T04:56:11.412Z,87905.00
2023-05-10T04:57:11.390Z,87905.00
2023-05-10T04:58:11.387Z,87905.00
2023-05-10T04:59:11.398Z,87905.00
2023-05-10T05:00:11.426Z,87907.00
2023-05-10T05:01:11.528Z,87907.00
2023-05-10T05:02:11.526Z,87909.00
2023-05-10T05:03:11.668Z,87907.00
2023-05-10T05:04:11.649Z,87907.00
2023-05-10T05:05:11.698Z,87909.00
2023-05-10T05:06:11.776Z,87909.00
2023-05-10T05:07:11.789Z,87909.00
2023-05-10T05:08:11.837Z,87907.00
2023-05-10T05:09:11.880Z,87911.00
2023-05-10T05:10:11.950Z,87907.00
2023-05-10T05:11:11.984Z,87907.00
2023-05-10T05:12:12.062Z,87911.00
2023-05-10T05:13:12.101Z,87909.00
2023-05-10T05:14:12.170Z,87907.00
2023-05-10T05:15:12.211Z,87907.00
2023-05-10T05:16:12.453Z,87907.00
2023-05-10T05:17:12.347Z,87907.00
2023-05-10T05:18:12.464Z,87905.00
2023-05-10T05:19:12.456Z,87907.00
2023-05-10T05:20:12.564Z,87909.00
2023-05-10T05:21:12.573Z,87907.00
2023-05-10T05:22:12.629Z,87905.00
2023-05-10T05:23:12.693Z,87907.00
2023-05-10T05:24:12.794Z,87907.00
2023-05-10T05:25:12.829Z,87909.00
2023-05-10T05:26:12.808Z,87909.00
2023-05-10T05:27:12.810Z,87907.00
2023-05-10T05:28:12.814Z,87907.00
2023-05-10T05:29:12.872Z,87909.00
2023-05-10T05:30:12.844Z,87909.00
2023-05-10T05:31:13.074Z,87913.00
2023-05-10T05:32:12.894Z,87913.00
2023-05-10T05:33:12.841Z,87915.00
2023-05-10T05:34:12.852Z,87909.00
2023-05-10T05:35:12.809Z,87911.00
2023-05-10T05:36:12.859Z,87909.00
2023-05-10T05:37:12.924Z,87911.00
2023-05-10T05:38:12.948Z,87909.00
2023-05-10T05:39:13.003Z,87907.00
2023-05-10T05:40:13.029Z,87909.00
2023-05-10T05:41:13.085Z,87905.00
2023-05-10T05:42:13.085Z,87903.00
2023-05-10T05:43:13.156Z,87905.00
2023-05-10T05:44:13.140Z,87905.00
2023-05-10T05:45:13.171Z,87905.00
2023-05-10T05:46:13.201Z,87907.00
2023-05-10T05:47:13.195Z,87905.00
2023-05-10T05:48:13.221Z,87909.00
2023-05-10T05:49:13.231Z,87913.00
2023-05-10T05:50:13.232Z,87909.00
2023-05-10T05:51:13.222Z,87911.00
2023-05-10T05:52:13.263Z,87911.00
2023-05-10T05:53:13.261Z,87911.00
2023-05-10T05:54:13.262Z,87909.00
2023-05-10T05:55:13.259Z,87911.00
2023-05-10T05:56:13.240Z,87909.00
2023-05-10T05:57:13.231Z,87909.00
2023-05-10T05:58:13.228Z,87913.00
2023-05-10T05:59:13.208Z,87909.00
2023-05-10T06:00:13.734Z,87909.00
2023-05-10T06:01:13.216Z,87913.00
2023-05-10T06:02:13.300Z,87911.00
2023-05-10T06:03:13.319Z,87913.00
2023-05-10T06:04:13.282Z,87911.00
2023-05-10T06:05:13.180Z,87913.00
2023-05-10T06:06:13.170Z,87911.00
2023-05-10T06:07:13.177Z,87911.00
2023-05-10T06:08:13.148Z,87913.00
2023-05-10T06:09:13.157Z,87913.00
2023-05-10T06:10:13.123Z,87915.00
2023-05-10T06:11:13.120Z,87917.00
2023-05-10T06:12:13.129Z,87917.00
2023-05-10T06:13:13.152Z,87915.00
2023-05-10T06:14:13.108Z,87919.00
2023-05-10T06:15:13.134Z,87919.00
2023-05-10T06:16:13.072Z,87921.00
2023-05-10T06:17:13.057Z,87919.00
2023-05-10T06:18:13.161Z,87919.00
2023-05-10T06:19:13.032Z,87921.00
2023-05-10T06:20:13.069Z,87919.00
2023-05-10T06:21:13.096Z,87927.00
2023-05-10T06:22:13.139Z,87927.00
2023-05-10T06:23:13.167Z,87927.00
2023-05-10T06:24:13.205Z,87929.00
2023-05-10T06:25:13.262Z,87927.00
2023-05-10T06:26:13.257Z,87927.00
2023-05-10T06:27:14.138Z,87929.00
2023-05-10T06:28:13.276Z,87927.00
2023-05-10T06:29:13.237Z,87931.00
2023-05-10T06:30:13.802Z,87935.00
2023-05-10T06:31:13.265Z,87935.00
2023-05-10T06:32:13.217Z,87935.00
2023-05-10T06:33:13.198Z,87937.00
2023-05-10T06:34:13.160Z,87941.00
2023-05-10T06:35:13.152Z,87937.00
2023-05-10T06:36:13.153Z,87939.00
2023-05-10T06:37:13.139Z,87937.00
2023-05-10T06:38:13.099Z,87935.00
2023-05-10T06:39:13.075Z,87937.00
2023-05-10T06:40:13.099Z,87937.00
2023-05-10T06:41:13.040Z,87937.00
2023-05-10T06:42:13.038Z,87939.00
2023-05-10T06:43:13.012Z,87943.00
2023-05-10T06:44:13.110Z,87939.00
2023-05-10T06:45:12.971Z,87937.00
2023-05-10T06:46:12.969Z,87941.00
2023-05-10T06:47:12.921Z,87937.00
2023-05-10T06:48:13.024Z,87939.00
2023-05-10T06:49:12.920Z,87937.00
2023-05-10T06:50:12.997Z,87939.00
2023-05-10T06:51:12.898Z,87937.00
2023-05-10T06:52:12.844Z,87939.00
2023-05-10T06:53:12.877Z,87939.00
2023-05-10T06:54:12.861Z,87945.00
2023-05-10T06:55:12.810Z,87941.00
2023-05-10T06:56:12.815Z,87941.00
2023-05-10T06:57:23.262Z,87943.00
2023-05-10T06:58:13.772Z,87943.00
2023-05-10T06:59:12.796Z,87941.00
2023-05-10T07:00:12.850Z,87939.00
2023-05-10T07:01:12.792Z,87939.00
2023-05-10T07:02:12.782Z,87937.00
2023-05-10T07:03:12.864Z,87939.00
2023-05-10T07:04:12.668Z,87941.00
2023-05-10T07:05:12.654Z,87941.00
2023-05-10T07:06:21.599Z,87939.00
2023-05-10T07:07:13.651Z,87937.00
2023-05-10T07:08:12.598Z,87937.00
2023-05-10T07:09:12.600Z,87935.00
2023-05-10T07:10:12.566Z,87939.00
2023-05-10T07:11:12.539Z,87943.00
2023-05-10T07:12:14.745Z,87943.00
2023-05-10T07:13:12.681Z,87943.00
2023-05-10T07:14:12.669Z,87941.00
2023-05-10T07:15:13.228Z,87941.00
2023-05-10T07:16:12.548Z,87939.00
2023-05-10T07:17:12.540Z,87939.00
2023-05-10T07:18:12.498Z,87939.00
2023-05-10T07:19:13.402Z,87943.00
2023-05-10T07:20:12.417Z,87943.00
2023-05-10T07:21:12.399Z,87941.00
2023-05-10T07:22:12.346Z,87941.00
2023-05-10T07:23:13.167Z,87939.00
2023-05-10T07:24:12.333Z,87937.00
2023-05-10T07:25:12.367Z,87939.00
2023-05-10T07:26:12.335Z,87941.00
2023-05-10T07:27:12.298Z,87943.00
2023-05-10T07:28:12.257Z,87941.00
2023-05-10T07:29:12.227Z,87945.00
2023-05-10T07:30:12.224Z,87941.00
2023-05-10T07:31:12.215Z,87943.00
2023-05-10T07:32:12.217Z,87941.00
2023-05-10T07:33:12.266Z,87941.00
2023-05-10T07:34:12.206Z,87939.00
2023-05-10T07:35:12.178Z,87943.00
2023-05-10T07:36:12.176Z,87943.00
2023-05-10T07:37:12.164Z,87943.00
2023-05-10T07:38:12.202Z,87945.00
2023-05-10T07:39:16.258Z,87941.00
2023-05-10T07:40:12.196Z,87943.00
2023-05-10T07:41:12.106Z,87939.00
2023-05-10T07:42:12.150Z,87939.00
2023-05-10T07:43:12.133Z,87939.00
2023-05-10T07:44:12.100Z,87941.00
2023-05-10T07:45:12.110Z,87941.00
2023-05-10T07:46:12.190Z,87939.00
2023-05-10T07:47:12.131Z,87943.00
2023-05-10T07:48:12.112Z,87943.00
2023-05-10T07:49:12.116Z,87943.00
2023-05-10T07:50:12.078Z,87939.00
2023-05-10T07:51:12.085Z,87941.00
2023-05-10T07:52:12.095Z,87941.00
2023-05-10T07:53:12.113Z,87939.00
2023-05-10T07:54:12.105Z,87941.00
2023-05-10T07:55:12.077Z,87939.00
2023-05-10T07:56:12.075Z,87941.00
2023-05-10T07:57:12.110Z,87939.00
2023-05-10T07:58:12.030Z,87937.00
2023-05-10T07:59:12.880Z,87937.00
2023-05-10T08:00:12.029Z,87937.00
2023-05-10T08:01:12.028Z,87935.00
2023-05-10T08:02:12.123Z,87935.00
2023-05-10T08:03:12.302Z,87935.00
2023-05-10T08:04:12.164Z,87933.00
2023-05-10T08:05:12.208Z,87935.00
2023-05-10T08:06:12.129Z,87933.00
2023-05-10T08:07:12.110Z,87933.00
2023-05-10T08:08:12.176Z,87935.00
2023-05-10T08:09:12.109Z,87933.00
2023-05-10T08:10:12.188Z,87927.00
2023-05-10T08:11:12.085Z,87929.00
2023-05-10T08:12:12.095Z,87929.00
2023-05-10T08:13:12.085Z,87931.00
2023-05-10T08:14:12.192Z,87929.00
2023-05-10T08:15:13.198Z,87927.00
2023-05-10T08:16:12.289Z,87935.00
2023-05-10T08:17:12.327Z,87931.00
2023-05-10T08:18:12.385Z,87931.00
2023-05-10T08:19:12.415Z,87931.00
2023-05-10T08:20:12.439Z,87933.00
2023-05-10T08:21:12.496Z,87935.00
2023-05-10T08:22:12.445Z,87933.00
2023-05-10T08:23:12.439Z,87931.00
2023-05-10T08:24:12.482Z,87935.00
2023-05-10T08:25:12.474Z,87935.00
2023-05-10T08:26:12.484Z,87935.00
2023-05-10T08:27:12.490Z,87935.00
2023-05-10T08:28:12.535Z,87935.00
2023-05-10T08:29:12.533Z,87935.00
2023-05-10T08:30:12.593Z,87935.00
2023-05-10T08:31:12.612Z,87935.00
2023-05-10T08:32:12.641Z,87935.00
2023-05-10T08:33:12.650Z,87935.00
2023-05-10T08:34:12.562Z,87933.00
2023-05-10T08:35:12.634Z,87935.00
2023-05-10T08:36:12.600Z,87935.00
2023-05-10T08:37:12.636Z,87935.00
2023-05-10T08:38:12.672Z,87931.00
2023-05-10T08:39:22.862Z,87937.00
2023-05-10T08:40:12.717Z,87937.00
2023-05-10T08:41:12.723Z,87937.00
2023-05-10T08:42:12.745Z,87939.00
2023-05-10T08:43:12.726Z,87939.00
2023-05-10T08:44:12.753Z,87939.00
2023-05-10T08:45:12.757Z,87939.00
2023-05-10T08:46:12.756Z,87937.00
2023-05-10T08:47:12.822Z,87939.00
2023-05-10T08:48:12.809Z,87939.00
2023-05-10T08:49:12.717Z,87941.00
2023-05-10T08:50:12.741Z,87943.00
2023-05-10T08:51:12.725Z,87941.00
2023-05-10T08:52:12.730Z,87939.00
2023-05-10T08:53:12.761Z,87937.00
2023-05-10T08:54:12.739Z,87939.00
2023-05-10T08:55:12.827Z,87935.00
2023-05-10T08:56:12.786Z,87935.00
2023-05-10T08:57:12.772Z,87937.00
2023-05-10T08:58:12.791Z,87937.00
2023-05-10T08:59:12.781Z,87941.00
2023-05-10T09:00:12.951Z,87939.00
2023-05-10T09:01:12.960Z,87939.00
2023-05-10T09:02:12.959Z,87941.00
2023-05-10T09:03:12.959Z,87941.00
2023-05-10T09:04:13.064Z,87945.00
2023-05-10T09:05:13.022Z,87945.00
2023-05-10T09:06:13.001Z,87949.00
2023-05-10T09:07:12.992Z,87947.00
2023-05-10T09:08:13.060Z,87958.00
2023-05-10T09:09:13.045Z,87958.00
2023-05-10T09:10:13.068Z,87949.00
2023-05-10T09:11:13.058Z,87951.00
2023-05-10T09:12:13.074Z,87960.00
2023-05-10T09:13:13.107Z,87960.00
2023-05-10T09:14:13.206Z,87962.00
2023-05-10T09:15:13.214Z,87964.00
2023-05-10T09:16:20.938Z,87962.00
2023-05-10T09:17:14.259Z,87964.00
2023-05-10T09:18:13.395Z,87964.00
2023-05-10T09:19:13.390Z,87964.00
2023-05-10T09:20:13.495Z,87967.00
2023-05-10T09:21:13.297Z,87965.00
2023-05-10T09:22:13.229Z,87969.00
2023-05-10T09:23:13.250Z,87967.00
2023-05-10T09:24:13.230Z,87969.00
2023-05-10T09:25:13.245Z,87971.00
2023-05-10T09:26:13.305Z,87971.00
2023-05-10T09:27:13.363Z,87979.00
2023-05-10T09:28:13.233Z,87975.00
2023-05-10T09:29:14.669Z,87975.00
2023-05-10T09:30:13.213Z,87979.00
2023-05-10T09:31:13.334Z,87985.00
2023-05-10T09:32:13.785Z,87987.00
2023-05-10T09:33:13.243Z,87985.00
2023-05-10T09:34:13.242Z,87983.00
2023-05-10T09:35:13.253Z,87985.00
2023-05-10T09:36:13.320Z,87989.00
2023-05-10T09:37:13.274Z,87991.00
2023-05-10T09:38:13.392Z,87991.00
2023-05-10T09:39:13.359Z,87991.00
2023-05-10T09:40:14.160Z,87993.00
2023-05-10T09:41:13.446Z,87993.00
2023-05-10T09:42:13.516Z,87993.00
2023-05-10T09:43:13.501Z,87989.00
2023-05-10T09:44:13.548Z,87989.00
2023-05-10T09:45:13.628Z,87989.00
2023-05-10T09:46:13.686Z,87993.00
2023-05-10T09:47:13.615Z,87993.00
2023-05-10T09:48:13.711Z,87995.00
2023-05-10T09:49:13.796Z,87995.00
2023-05-10T09:50:13.899Z,87997.00
2023-05-10T09:51:13.897Z,87999.00
2023-05-10T09:52:13.866Z,87997.00
2023-05-10T09:53:13.873Z,87997.00
2023-05-10T09:54:13.916Z,88001.00
2023-05-10T09:55:14.083Z,88003.00
2023-05-10T09:56:13.899Z,87999.00
2023-05-10T09:57:14.214Z,88001.00
2023-05-10T09:58:13.884Z,88001.00
2023-05-10T09:59:13.871Z,88001.00
2023-05-10T10:00:13.895Z,88003.00
2023-05-10T10:01:13.938Z,88001.00
2023-05-10T10:02:13.983Z,88001.00
2023-05-10T10:03:13.881Z,88005.00
2023-05-10T10:04:13.938Z,88007.00
2023-05-10T10:05:14.010Z,88005.00
2023-05-10T10:06:26.457Z,88005.00
2023-05-10T10:07:14.951Z,88007.00
2023-05-10T10:08:14.067Z,88011.00
2023-05-10T10:09:13.936Z,88007.00
2023-05-10T10:10:13.930Z,88005.00
2023-05-10T10:11:13.959Z,88007.00
2023-05-10T10:12:13.927Z,88009.00
2023-05-10T10:13:13.950Z,88009.00
2023-05-10T10:14:14.069Z,88007.00
2023-05-10T10:15:16.507Z,88005.00
2023-05-10T10:16:14.050Z,88009.00
2023-05-10T10:17:13.944Z,88011.00
2023-05-10T10:18:13.915Z,88007.00
2023-05-10T10:19:13.907Z,88009.00
2023-05-10T10:20:14.253Z,88009.00
2023-05-10T10:21:13.922Z,88011.00
2023-05-10T10:22:13.914Z,88011.00
2023-05-10T10:23:15.831Z,88007.00
2023-05-10T10:24:13.888Z,88009.00
2023-05-10T10:25:13.938Z,88007.00
2023-05-10T10:26:13.886Z,88009.00
2023-05-10T10:27:13.892Z,88007.00
2023-05-10T10:28:13.891Z,88007.00
2023-05-10T10:29:13.918Z,88007.00
2023-05-10T10:30:13.975Z,88009.00
2023-05-10T10:31:13.879Z,88007.00
2023-05-10T10:32:13.860Z,88005.00
2023-05-10T10:33:27.243Z,88003.00
2023-05-10T10:34:14.859Z,88003.00
2023-05-10T10:35:13.844Z,88005.00
2023-05-10T10:36:13.849Z,88005.00
2023-05-10T10:37:13.854Z,88001.00
2023-05-10T10:38:13.810Z,88003.00
2023-05-10T10:39:13.853Z,88003.00
2023-05-10T10:40:13.777Z,88003.00
2023-05-10T10:41:13.779Z,88003.00
2023-05-10T10:42:13.776Z,87999.00
2023-05-10T10:43:13.847Z,87999.00
2023-05-10T10:44:13.737Z,87999.00
2023-05-10T10:45:13.899Z,87999.00
2023-05-10T10:46:13.726Z,87999.00
2023-05-10T10:47:13.715Z,87997.00
2023-05-10T10:48:13.710Z,87999.00
2023-05-10T10:49:13.724Z,88001.00
2023-05-10T10:50:13.706Z,87999.00
2023-05-10T10:51:13.660Z,87999.00
2023-05-10T10:52:13.663Z,87999.00
2023-05-10T10:53:13.674Z,87997.00
2023-05-10T10:54:13.679Z,87999.00
2023-05-10T10:55:13.634Z,88003.00
2023-05-10T10:56:13.659Z,87999.00
2023-05-10T10:57:13.599Z,87999.00
2023-05-10T10:58:13.589Z,87999.00
2023-05-10T10:59:13.576Z,87997.00
2023-05-10T11:00:13.576Z,87995.00
2023-05-10T11:01:13.633Z,87995.00
2023-05-10T11:02:13.586Z,87993.00
2023-05-10T11:03:13.633Z,87991.00
2023-05-10T11:04:14.046Z,87991.00
2023-05-10T11:05:13.718Z,87993.00
2023-05-10T11:06:13.723Z,87993.00
2023-05-10T11:07:13.759Z,87991.00
2023-05-10T11:08:13.756Z,87991.00
2023-05-10T11:09:13.725Z,87993.00
2023-05-10T11:10:13.716Z,87989.00
2023-05-10T11:11:13.725Z,87991.00
2023-05-10T11:12:13.812Z,87987.00
2023-05-10T11:13:13.704Z,87985.00
2023-05-10T11:14:14.570Z,87983.00
2023-05-10T11:15:13.692Z,87983.00
2023-05-10T11:16:13.691Z,87981.00
2023-05-10T11:17:13.739Z,87981.00
2023-05-10T11:18:13.710Z,87981.00
2023-05-10T11:19:13.799Z,87979.00
2023-05-10T11:20:13.729Z,87981.00
2023-05-10T11:21:14.052Z,87983.00
2023-05-10T11:22:13.612Z,87983.00
2023-05-10T11:23:13.674Z,87985.00
2023-05-10T11:24:13.725Z,87981.00
2023-05-10T11:25:13.628Z,87981.00
2023-05-10T11:26:13.615Z,87983.00
2023-05-10T11:27:14.229Z,87983.00
2023-05-10T11:28:13.616Z,87983.00
2023-05-10T11:29:13.622Z,87987.00
2023-05-10T11:30:13.841Z,87989.00
2023-05-10T11:31:13.733Z,87991.00
2023-05-10T11:32:13.779Z,87989.00
2023-05-10T11:33:13.731Z,87991.00
2023-05-10T11:34:13.797Z,87989.00
2023-05-10T11:35:13.765Z,87991.00
2023-05-10T11:36:13.798Z,87987.00
2023-05-10T11:37:13.818Z,87983.00
2023-05-10T11:38:13.814Z,87981.00
2023-05-10T11:39:13.851Z,87985.00
2023-05-10T11:40:13.891Z,87983.00
2023-05-10T11:41:13.888Z,87985.00
2023-05-10T11:42:13.886Z,87985.00
2023-05-10T11:43:13.877Z,87985.00
2023-05-10T11:44:13.893Z,87987.00
2023-05-10T11:45:13.893Z,87987.00
2023-05-10T11:46:13.937Z,87989.00